Aviation Digital Data Service (ADDS)

Output produced by METARs form (1155 UTC 25 October 2014)
found at http://www.aviationweather.gov/adds/metars/
 
KESN 251050Z 00000KT 10SM SKC 08/08 A2997